28. Mai 2022

Uhrzeit Code Wetter Temp. Sichtweite Wolkendecke Wind METAR/SPECI
6:30 pm
V
79 °F 6¼ mi+ - 200° 200° 7 kt METAR LEGE 281630Z 20007KT 170V230 CAVOK 26/13 Q1009
6:00 pm
V
81 °F 6¼ mi+ - 200° 200° 8 kt METAR LEGE 281600Z 20008KT 170V250 CAVOK 27/13 Q1009
5:30 pm
V
81 °F 6¼ mi+ - 190° 190° 7 kt METAR LEGE 281530Z 19007KT CAVOK 27/13 Q1010
5:00 pm
V
79 °F 6¼ mi+ - 190° 190° 10 kt METAR LEGE 281500Z 19010KT 160V220 CAVOK 26/13 Q1010
4:30 pm
V
81 °F 6¼ mi+ - 200° 200° 12 kt METAR LEGE 281430Z 20012KT 170V240 CAVOK 27/14 Q1010
4:00 pm
V
82 °F 6¼ mi+ - 190° 190° 10 kt METAR LEGE 281400Z 19010KT 160V260 CAVOK 28/13 Q1010
3:30 pm
V
82 °F 6¼ mi+ - 200° 200° 9 kt METAR LEGE 281330Z 20009KT 150V260 CAVOK 28/12 Q1010
3:00 pm
V
82 °F 6¼ mi+ - 190° 190° 8 kt METAR LEGE 281300Z 19008KT 160V240 CAVOK 28/12 Q1011
2:30 pm
V
82 °F 6¼ mi+ - 190° 190° 8 kt METAR LEGE 281230Z 19008KT 140V240 CAVOK 28/12 Q1011
2:00 pm
V
82 °F 6¼ mi+ - 190° 190° 8 kt METAR LEGE 281200Z 19008KT 160V270 CAVOK 28/14 Q1012
1:30 pm
V
82 °F 6¼ mi+ - 210° 210° 8 kt METAR LEGE 281130Z 21008KT 180V250 CAVOK 28/13 Q1012
1:00 pm
V
81 °F 6¼ mi+ - 210° 210° 7 kt METAR LEGE 281100Z 21007KT 180V250 CAVOK 27/12 Q1012
12:30 pm
V
81 °F 6¼ mi+ - Var Var 4 kt METAR LEGE 281030Z VRB04KT CAVOK 27/14 Q1012
12:00 pm
V
79 °F 6¼ mi+ - 200° 200° 6 kt METAR LEGE 281000Z 20006KT 160V260 CAVOK 26/14 Q1012
11:30 am
V
79 °F 6¼ mi+ - 200° 200° 5 kt METAR LEGE 280930Z 20005KT 150V260 CAVOK 26/15 Q1013
11:00 am
V
77 °F 6¼ mi+ - 150° 150° 4 kt METAR LEGE 280900Z 15004KT 080V210 CAVOK 25/14 Q1013
10:30 am
V
75 °F 6¼ mi+ - Var Var 2 kt METAR LEGE 280830Z VRB02KT CAVOK 24/13 Q1013
10:00 am
V
73 °F 6¼ mi+ - 190° 190° 4 kt METAR LEGE 280800Z 19004KT 140V230 CAVOK 23/15 Q1013
9:30 am
V
70 °F 6¼ mi+ - Var Var 2 kt METAR LEGE 280730Z VRB02KT CAVOK 21/14 Q1014
9:00 am
V
68 °F 6¼ mi+ - Var Var 1 kt METAR LEGE 280700Z VRB01KT CAVOK 20/14 Q1014
8:30 am
V
64 °F 6¼ mi+ - Var Var 1 kt METAR LEGE 280630Z VRB01KT CAVOK 18/14 Q1014
8:00 am
V
63 °F 6¼ mi+ - Var 000° 0 kt METAR LEGE 280600Z 00000KT CAVOK 17/13 Q1014
7:30 am
V
57 °F 6¼ mi+ - 280° 280° 3 kt METAR LEGE 280530Z 28003KT CAVOK 14/12 Q1014
7:00 am
V
54 °F 6¼ mi+ - 040° 040° 1 kt METAR LEGE 280500Z 04001KT CAVOK 12/11 Q1014
6:30 am
V
52 °F 6¼ mi+ - 040° 040° 2 kt METAR LEGE 280430Z 04002KT CAVOK 11/10 Q1014
6:00 am
V
52 °F 6¼ mi+ - Var 000° 0 kt METAR LEGE 280400Z 00000KT CAVOK 11/10 Q1014
5:30 am
V
54 °F 6¼ mi+ - Var 000° 0 kt METAR LEGE 280330Z 00000KT CAVOK 12/11 Q1014
5:00 am
V
54 °F 6¼ mi+ - Var 000° 0 kt METAR LEGE 280300Z 00000KT CAVOK 12/11 Q1015
4:30 am
V
55 °F 6¼ mi+ - Var 000° 0 kt METAR LEGE 280230Z 00000KT CAVOK 13/11 Q1015
4:00 am
V
54 °F 6¼ mi+ - 040° 040° 1 kt METAR LEGE 280200Z 04001KT CAVOK 12/11 Q1015
3:30 am
V
55 °F 6¼ mi+ - Var 000° 0 kt METAR LEGE 280130Z 00000KT CAVOK 13/11 Q1015
3:00 am
V
57 °F 6¼ mi+ - Var 000° 0 kt METAR LEGE 280100Z 00000KT CAVOK 14/11 Q1016
2:30 am
V
57 °F 6¼ mi+ - Var 000° 0 kt METAR LEGE 280030Z 00000KT CAVOK 14/12 Q1016
2:00 am
V
57 °F 6¼ mi+ - Var 000° 0 kt METAR LEGE 280000Z 00000KT CAVOK 14/12 Q1016
1:30 am
V
57 °F 6¼ mi+ - Var Var 2 kt METAR LEGE 272330Z VRB02KT CAVOK 14/12 Q1017
1:00 am
V
59 °F 6¼ mi+ - Var 000° 0 kt METAR LEGE 272300Z 00000KT CAVOK 15/12 Q1017
12:30 am
V
59 °F 6¼ mi+ - 360° 360° 1 kt METAR LEGE 272230Z 36001KT CAVOK 15/11 Q1017
12:00 am
V
61 °F 6¼ mi+ - 340° 340° 3 kt METAR LEGE 272200Z 34003KT 250V030 CAVOK 16/12 Q1017

27. Mai 2022

Uhrzeit Code Wetter Temp. Sichtweite Wolkendecke Wind METAR/SPECI
11:30 pm
V
66 °F 6¼ mi+ - 360° 360° 4 kt METAR LEGE 272130Z 36004KT CAVOK 19/11 Q1017
11:00 pm
V
63 °F 6¼ mi+ - 290° 290° 1 kt METAR LEGE 272100Z 29001KT CAVOK 17/12 Q1017
10:30 pm
V
66 °F 6¼ mi+ - 010° 010° 5 kt METAR LEGE 272030Z 01005KT 330V030 CAVOK 19/12 Q1016
10:00 pm
V
66 °F 6¼ mi+ - 020° 020° 4 kt METAR LEGE 272000Z 02004KT CAVOK 19/12 Q1016
9:30 pm
V
70 °F 6¼ mi+ - 050° 050° 6 kt METAR LEGE 271930Z 05006KT CAVOK 21/12 Q1016
9:00 pm
V
72 °F 6¼ mi+ - 040° 040° 8 kt METAR LEGE 271900Z 04008KT CAVOK 22/12 Q1016
8:30 pm
V
73 °F 6¼ mi+ - 020° 020° 6 kt METAR LEGE 271830Z 02006KT 350V060 CAVOK 23/12 Q1016
8:00 pm
V
77 °F 6¼ mi+ - 040° 040° 9 kt METAR LEGE 271800Z 04009KT CAVOK 25/12 Q1016
7:30 pm
V
77 °F 6¼ mi+ - 020° 020° 7 kt METAR LEGE 271730Z 02007KT 350V050 CAVOK 25/12 Q1016
7:00 pm
V
79 °F 6¼ mi+ - 050° 050° 10 kt METAR LEGE 271700Z 05010KT 020V080 CAVOK 26/11 Q1016
6:30 pm
V
81 °F 6¼ mi+ - 040° 040° 10 kt METAR LEGE 271630Z 04010KT 350V070 CAVOK 27/10 Q1016
6:00 pm
V
81 °F 6¼ mi+ - 030° 030° 12 kt METAR LEGE 271600Z 03012KT CAVOK 27/10 Q1016
5:30 pm
V
81 °F 6¼ mi+ - 030° 030° 13 kt METAR LEGE 271530Z 03013KT 010V070 CAVOK 27/10 Q1016
5:00 pm
V
81 °F 6¼ mi+ - 040° 040° 12 kt METAR LEGE 271500Z 04012KT 350V080 CAVOK 27/10 Q1017
4:30 pm
V
81 °F 6¼ mi+ - 040° 040° 12 kt METAR LEGE 271430Z 04012KT 350V100 CAVOK 27/11 Q1017
4:00 pm
V
81 °F 6¼ mi+ - 040° 040° 17 kt METAR LEGE 271400Z 04017KT 010V070 CAVOK 27/10 Q1017
3:30 pm
V
81 °F 6¼ mi+ - 030° 030° 10 kt METAR LEGE 271330Z 03010KT 340V060 CAVOK 27/12 Q1017
3:00 pm
V
77 °F 6¼ mi+ - 030° 030° 7 kt METAR LEGE 271300Z 03007KT 350V060 CAVOK 25/11 Q1018
2:30 pm
V
75 °F 6¼ mi+ - 040° 040° 6 kt METAR LEGE 271230Z 04006KT 350V080 CAVOK 24/13 Q1018
2:00 pm
V
73 °F 6¼ mi+ - 030° 030° 5 kt METAR LEGE 271200Z 03005KT 320V120 CAVOK 23/12 Q1018
1:30 pm
V
73 °F 6¼ mi+ - 040° 040° 5 kt METAR LEGE 271130Z 04005KT 010V080 CAVOK 23/13 Q1018
1:00 pm
V
70 °F 6¼ mi+ - 030° 030° 4 kt METAR LEGE 271100Z 03004KT 330V050 CAVOK 21/12 Q1019
12:30 pm
V
68 °F 6¼ mi+ - 020° 020° 5 kt METAR LEGE 271030Z 02005KT 350V050 CAVOK 20/12 Q1019
12:00 pm
V
66 °F 6¼ mi+ - 020° 020° 5 kt METAR LEGE 271000Z 02005KT 350V050 CAVOK 19/12 Q1019
11:30 am
V
66 °F 6¼ mi+ - 040° 040° 6 kt METAR LEGE 270930Z 04006KT 360V070 CAVOK 19/11 Q1019
11:00 am
V
64 °F 6¼ mi+ - 030° 030° 5 kt METAR LEGE 270900Z 03005KT 350V080 CAVOK 18/11 Q1019
10:30 am
V
64 °F 6¼ mi+ - 030° 030° 6 kt METAR LEGE 270830Z 03006KT 010V070 9999 FEW030 18/11 Q1019
10:00 am
V
64 °F 6¼ mi+ - 030° 030° 7 kt METAR LEGE 270800Z 03007KT 350V060 9999 FEW030 18/11 Q1019
9:30 am
V
63 °F 6¼ mi+ - 010° 010° 7 kt METAR LEGE 270730Z 01007KT 330V030 CAVOK 17/10 Q1019
9:00 am
V
63 °F 6¼ mi+ - 010° 010° 7 kt METAR LEGE 270700Z 01007KT 9999 FEW080 17/10 Q1019
8:30 am
V
61 °F 6¼ mi+ - 340° 340° 3 kt METAR LEGE 270630Z 34003KT 300V020 9999 FEW080 16/10 Q1019
8:00 am
V
59 °F 6¼ mi+ - 360° 360° 4 kt METAR LEGE 270600Z 36004KT 310V030 CAVOK 15/10 Q1019
7:30 am
V
59 °F 6¼ mi+ - 320° 320° 2 kt METAR LEGE 270530Z 32002KT CAVOK 15/11 Q1019
7:00 am
V
57 °F 6¼ mi+ - 200° 200° 1 kt METAR LEGE 270500Z 20001KT CAVOK 14/11 Q1018
6:30 am
V
57 °F 6¼ mi+ - Var Var 2 kt METAR LEGE 270430Z VRB02KT CAVOK 14/11 Q1018
6:00 am
V
59 °F 6¼ mi+ - Var 000° 0 kt METAR LEGE 270400Z 00000KT CAVOK 15/10 Q1018
5:30 am
V
59 °F 6¼ mi+ - 040° 040° 5 kt METAR LEGE 270330Z 04005KT CAVOK 15/09 Q1018
5:00 am
V
59 °F 6¼ mi+ - 360° 360° 4 kt METAR LEGE 270300Z 36004KT 280V030 CAVOK 15/09 Q1018
4:30 am
V
59 °F 6¼ mi+ - 020° 020° 6 kt METAR LEGE 270230Z 02006KT CAVOK 15/10 Q1018
4:00 am
V
61 °F 6¼ mi+ - 360° 360° 6 kt METAR LEGE 270200Z 36006KT 320V030 CAVOK 16/09 Q1019
3:30 am
V
57 °F 6¼ mi+ - 020° 020° 5 kt METAR LEGE 270130Z 02005KT CAVOK 14/10 Q1019
3:00 am
V
57 °F 6¼ mi+ - 020° 020° 4 kt METAR LEGE 270100Z 02004KT CAVOK 14/09 Q1019
2:30 am
V
61 °F 6¼ mi+ - 350° 350° 6 kt METAR LEGE 270030Z 35006KT 320V030 CAVOK 16/09 Q1019
2:00 am
V
61 °F 6¼ mi+ 8.000 ft 360° 360° 5 kt METAR LEGE 270000Z 36005KT 330V040 9999 BKN080 16/09 Q1020
1:30 am
V
61 °F 6¼ mi+ - 020° 020° 4 kt METAR LEGE 262330Z 02004KT 9999 SCT080 16/10 Q1020
1:00 am
V
61 °F 6¼ mi+ 8.000 ft Var 000° 0 kt METAR LEGE 262300Z 00000KT 9999 BKN080 16/11 Q1020
12:30 am
V
61 °F 6¼ mi+ - Var Var 2 kt METAR LEGE 262230Z VRB02KT 9999 SCT080 16/11 Q1020
12:00 am
V
61 °F 6¼ mi+ - 040° 040° 4 kt METAR LEGE 262200Z 04004KT CAVOK 16/11 Q1020

26. Mai 2022

Uhrzeit Code Wetter Temp. Sichtweite Wolkendecke Wind METAR/SPECI
11:30 pm
V
64 °F 6¼ mi+ - 360° 360° 4 kt METAR LEGE 262130Z 36004KT CAVOK 18/09 Q1020
11:00 pm
V
64 °F 6¼ mi+ - 040° 040° 4 kt METAR LEGE 262100Z 04004KT 9999 SCT080 18/11 Q1020
10:30 pm
V
66 °F 6¼ mi+ 7.500 ft 020° 020° 4 kt METAR LEGE 262030Z 02004KT 350V050 9999 BKN075 19/10 Q1020
10:00 pm
V
68 °F 6¼ mi+ 7.500 ft Var Var 2 kt METAR LEGE 262000Z VRB02KT 9999 BKN075 20/11 Q1020
9:30 pm
V
68 °F 6¼ mi+ - 020° 020° 5 kt METAR LEGE 261930Z 02005KT 9999 SCT090 20/10 Q1019
9:00 pm
V
70 °F 6¼ mi+ 9.000 ft 040° 040° 6 kt METAR LEGE 261900Z 04006KT 360V070 9999 BKN090 21/09 Q1019
8:30 pm
V
70 °F 6¼ mi+ - 030° 030° 7 kt METAR LEGE 261830Z 03007KT 360V060 CAVOK 21/09 Q1019
8:00 pm
V
72 °F 6¼ mi+ - 040° 040° 10 kt METAR LEGE 261800Z 04010KT 010V070 CAVOK 22/10 Q1019
7:30 pm
V
73 °F 6¼ mi+ - 040° 040° 13 kt METAR LEGE 261730Z 04013KT 360V070 CAVOK 23/10 Q1019
7:00 pm
V
73 °F 6¼ mi+ - 040° 040° 14 kt METAR LEGE 261700Z 04014KT 360V070 CAVOK 23/09 Q1019
6:30 pm
V
73 °F 6¼ mi+ - 040° 040° 14 kt METAR LEGE 261630Z 04014KT 010V070 CAVOK 23/09 Q1019
6:00 pm
V
75 °F 6¼ mi+ - 040° 040° 17 kt METAR LEGE 261600Z 04017KT CAVOK 24/08 Q1019
5:30 pm
V
75 °F 6¼ mi+ - 040° 040° 16 kt METAR LEGE 261530Z 04016KT 010V070 9999 FEW080 24/09 Q1019
5:00 pm
V
75 °F 6¼ mi+ - 040° 040° 12 kt METAR LEGE 261500Z 04012KT 350V090 9999 FEW080 24/09 Q1019
Ältere Daten

Laden Sie unsere App herunter

Einfacher Zugriff auf das gesamte Flugwetter auf Ihrem Mobiltelefon und Tablet.
Mit vielen Funktionen, die auf der Website nicht verfügbar sind, wie Offline-Unterstützung und eine persönliche Flughafenliste.

Wir und Dritte verfolgen dein Internetverhalten auf unserer Website mit Cookies. Wenn du fortfährst, gehen wir davon aus, dass du mit unserer Cookie-Richtlinie einverstanden bist. Mehr erfahren